createdAt,value
2023-04-16T00:03:20.618Z,101588.45999999999
2023-04-16T00:07:19.903Z,101583.98999999999
2023-04-16T00:11:21.082Z,101582.08
2023-04-16T00:19:20.136Z,101579.75
2023-04-16T00:27:19.996Z,101580.56
2023-04-16T00:31:26.729Z,101578.54999999999
2023-04-16T00:35:20.113Z,101579.04999999999
2023-04-16T00:39:19.910Z,101581.43
2023-04-16T00:43:21.935Z,101580.55
2023-04-16T00:47:20.719Z,101579.75
2023-04-16T00:51:20.505Z,101580.04
2023-04-16T00:55:20.394Z,101576.72
2023-04-16T01:03:20.416Z,101575.73999999999
2023-04-16T01:07:20.023Z,101577.87
2023-04-16T01:11:20.154Z,101581.55
2023-04-16T01:15:19.977Z,101584.31
2023-04-16T01:19:20.208Z,101577.43000000001
2023-04-16T01:23:20.425Z,101580.28
2023-04-16T01:27:20.187Z,101578.8
2023-04-16T01:31:20.041Z,101575.66
2023-04-16T01:35:20.243Z,101575.53
2023-04-16T01:39:20.225Z,101569.92
2023-04-16T01:43:20.074Z,101571.73
2023-04-16T01:47:20.479Z,101573.36
2023-04-16T01:51:20.422Z,101574.87999999999
2023-04-16T01:55:20.312Z,101573.03
2023-04-16T01:59:20.229Z,101571.64
2023-04-16T02:11:20.566Z,101567.6
2023-04-16T02:15:20.129Z,101565.91
2023-04-16T02:27:20.204Z,101558.73
2023-04-16T02:31:21.393Z,101557.03
2023-04-16T02:35:20.354Z,101554.63
2023-04-16T02:39:20.243Z,101558.62
2023-04-16T02:43:20.312Z,101554.26999999999
2023-04-16T02:47:20.198Z,101552.84
2023-04-16T02:51:20.453Z,101550.59
2023-04-16T02:55:20.231Z,101555.11
2023-04-16T02:59:20.699Z,101560.58
2023-04-16T03:03:20.852Z,101556.58
2023-04-16T03:07:20.617Z,101558.12
2023-04-16T03:11:20.759Z,101557.70999999999
2023-04-16T03:15:20.519Z,101557.36
2023-04-16T03:19:20.505Z,101556.12
2023-04-16T03:23:20.394Z,101556.87000000001
2023-04-16T03:27:20.473Z,101558.62
2023-04-16T03:31:22.848Z,101555.83
2023-04-16T03:35:20.498Z,101556.09
2023-04-16T03:39:20.462Z,101554.38
2023-04-16T03:43:20.582Z,101551.51
2023-04-16T03:47:20.464Z,101547.70999999999
2023-04-16T03:51:20.453Z,101549.29
2023-04-16T03:55:20.478Z,101548.17
2023-04-16T03:59:20.462Z,101547.81
2023-04-16T04:03:20.638Z,101549.13
2023-04-16T04:07:20.633Z,101552.64
2023-04-16T04:11:20.718Z,101552.25
2023-04-16T04:15:20.589Z,101557.93
2023-04-16T04:19:20.477Z,101554.90999999999
2023-04-16T04:23:20.552Z,101552.47
2023-04-16T04:27:20.468Z,101548.19
2023-04-16T04:31:20.616Z,101549.69
2023-04-16T04:35:20.556Z,101547.33
2023-04-16T04:39:20.975Z,101547.53
2023-04-16T04:43:20.589Z,101541.94
2023-04-16T04:47:20.773Z,101543.62999999999
2023-04-16T04:51:20.647Z,101544.70999999999
2023-04-16T04:55:20.627Z,101547.29999999999
2023-04-16T04:59:20.664Z,101544.18
2023-04-16T05:03:21.452Z,101548.19
2023-04-16T05:07:21.038Z,101547.08
2023-04-16T05:11:20.961Z,101549.19
2023-04-16T05:15:20.911Z,101548.33
2023-04-16T05:23:20.860Z,101554.71
2023-04-16T05:35:21.132Z,101556.81
2023-04-16T05:39:20.685Z,101557.08
2023-04-16T05:47:20.937Z,101559.14
2023-04-16T05:51:22.073Z,101558.64
2023-04-16T05:55:20.947Z,101561.06999999999
2023-04-16T05:59:20.729Z,101559.06
2023-04-16T06:03:21.090Z,101564.45
2023-04-16T06:07:20.730Z,101565.09999999999
2023-04-16T06:11:21.277Z,101568.44
2023-04-16T06:15:20.764Z,101571.86
2023-04-16T06:19:20.873Z,101574.97
2023-04-16T06:23:20.817Z,101577.62
2023-04-16T06:27:20.955Z,101582.48
2023-04-16T06:31:20.940Z,101586.81
2023-04-16T06:35:21.147Z,101585.08
2023-04-16T06:39:20.878Z,101582.28
2023-04-16T06:43:21.077Z,101589.08
2023-04-16T06:47:20.949Z,101592.69
2023-04-16T06:51:21.304Z,101591.66
2023-04-16T06:55:20.894Z,101594.23000000001
2023-04-16T06:59:21.386Z,101599.1
2023-04-16T07:03:21.040Z,101597.86
2023-04-16T07:07:20.979Z,101601.31
2023-04-16T07:11:21.466Z,101600.16
2023-04-16T07:15:21.212Z,101604.0
2023-04-16T07:19:21.036Z,101599.01999999999
2023-04-16T07:23:21.016Z,101600.8
2023-04-16T07:27:21.115Z,101607.53
2023-04-16T07:31:21.311Z,101606.31
2023-04-16T07:35:21.054Z,101610.49
2023-04-16T07:39:21.154Z,101613.39
2023-04-16T07:43:20.980Z,101613.28
2023-04-16T07:47:22.112Z,101621.44
2023-04-16T07:51:21.065Z,101620.83
2023-04-16T07:55:21.642Z,101618.34
2023-04-16T07:59:23.507Z,101624.87999999999
2023-04-16T08:03:21.745Z,101627.8
2023-04-16T08:07:21.333Z,101627.35
2023-04-16T08:11:21.209Z,101630.48999999999
2023-04-16T08:15:21.110Z,101626.59
2023-04-16T08:19:21.300Z,101628.9
2023-04-16T08:23:21.158Z,101631.25
2023-04-16T08:27:21.277Z,101632.93
2023-04-16T08:31:21.223Z,101633.83
2023-04-16T08:35:21.385Z,101637.14
2023-04-16T08:39:21.157Z,101632.39
2023-04-16T08:43:23.133Z,101635.13
2023-04-16T08:47:24.484Z,101635.77
2023-04-16T08:51:22.061Z,101637.15
2023-04-16T08:55:25.435Z,101633.62
2023-04-16T08:59:21.665Z,101637.97
2023-04-16T09:03:21.300Z,101641.66
2023-04-16T09:07:21.686Z,101646.36
2023-04-16T09:11:21.488Z,101647.06
2023-04-16T09:15:21.763Z,101648.19
2023-04-16T09:19:22.257Z,101648.75
2023-04-16T09:23:21.716Z,101652.06
2023-04-16T09:27:22.954Z,101653.58
2023-04-16T09:31:21.483Z,101651.64
2023-04-16T09:35:21.387Z,101648.46
2023-04-16T09:39:22.346Z,101649.97
2023-04-16T09:43:21.343Z,101656.37000000001
2023-04-16T09:47:22.575Z,101659.90000000001
2023-04-16T09:51:21.455Z,101654.22
2023-04-16T09:55:26.050Z,101654.5
2023-04-16T09:59:24.330Z,101653.92
2023-04-16T10:07:21.815Z,101661.87999999999
2023-04-16T10:11:22.355Z,101666.95999999999
2023-04-16T10:15:21.602Z,101664.72
2023-04-16T10:19:21.799Z,101667.7
2023-04-16T10:23:22.070Z,101668.76999999999
2023-04-16T10:27:21.808Z,101665.52
2023-04-16T10:31:21.949Z,101667.97
2023-04-16T10:35:24.682Z,101667.76999999999
2023-04-16T10:39:23.023Z,101660.29999999999
2023-04-16T10:43:24.698Z,101662.15999999999
2023-04-16T10:47:23.856Z,101656.98
2023-04-16T10:51:25.185Z,101657.69
2023-04-16T10:55:23.888Z,101653.19
2023-04-16T10:59:23.085Z,101657.81
2023-04-16T11:03:21.924Z,101651.57
2023-04-16T11:07:32.912Z,101645.64
2023-04-16T11:19:21.813Z,101655.42
2023-04-16T11:23:21.887Z,101654.13
2023-04-16T11:27:22.241Z,101646.94
2023-04-16T11:31:22.444Z,101646.55
2023-04-16T11:35:21.963Z,101658.06
2023-04-16T11:43:22.102Z,101665.45
2023-04-16T11:47:22.435Z,101664.42
2023-04-16T11:51:22.391Z,101662.97
2023-04-16T11:55:22.728Z,101657.98
2023-04-16T11:59:23.243Z,101651.09999999999
2023-04-16T12:03:42.558Z,101651.95
2023-04-16T12:07:21.882Z,101651.9
2023-04-16T12:11:39.251Z,101649.72
2023-04-16T12:15:22.054Z,101649.63
2023-04-16T12:19:21.875Z,101649.91
2023-04-16T12:23:23.520Z,101652.71
2023-04-16T12:27:21.901Z,101651.83
2023-04-16T12:31:36.164Z,101649.84
2023-04-16T12:35:30.512Z,101651.54
2023-04-16T12:39:22.039Z,101651.73
2023-04-16T12:43:22.029Z,101652.25
2023-04-16T12:47:22.042Z,101649.55
2023-04-16T12:51:22.160Z,101647.36
2023-04-16T12:55:22.255Z,101643.8
2023-04-16T12:59:21.950Z,101643.94
2023-04-16T13:03:22.244Z,101640.59
2023-04-16T13:07:23.132Z,101638.95
2023-04-16T13:11:21.984Z,101641.56
2023-04-16T13:19:22.165Z,101636.75
2023-04-16T13:27:22.093Z,101638.04000000001
2023-04-16T13:31:22.230Z,101635.35
2023-04-16T13:35:22.085Z,101641.27
2023-04-16T13:39:22.029Z,101640.99
2023-04-16T13:43:22.264Z,101644.05
2023-04-16T13:47:22.152Z,101642.1
2023-04-16T13:51:22.449Z,101634.22
2023-04-16T13:55:22.207Z,101630.12999999999
2023-04-16T13:59:22.283Z,101628.28
2023-04-16T14:03:23.991Z,101632.05
2023-04-16T14:07:25.190Z,101627.94
2023-04-16T14:11:23.052Z,101630.89
2023-04-16T14:15:22.619Z,101628.85
2023-04-16T14:19:22.086Z,101631.16
2023-04-16T14:23:22.271Z,101626.39
2023-04-16T14:27:22.497Z,101626.48000000001
2023-04-16T14:31:22.636Z,101625.25
2023-04-16T14:35:22.534Z,101627.25
2023-04-16T14:39:23.172Z,101620.28
2023-04-16T14:43:22.210Z,101618.03
2023-04-16T14:47:22.504Z,101613.48000000001
2023-04-16T14:51:22.388Z,101611.83
2023-04-16T14:55:22.283Z,101611.0
2023-04-16T14:59:22.221Z,101610.32
2023-04-16T15:03:23.270Z,101608.83
2023-04-16T15:07:22.273Z,101607.08
2023-04-16T15:11:22.486Z,101604.45999999999
2023-04-16T15:19:22.497Z,101604.1
2023-04-16T15:23:22.470Z,101598.91
2023-04-16T15:27:22.401Z,101591.99
2023-04-16T15:31:22.368Z,101588.09
2023-04-16T15:35:22.630Z,101589.36
2023-04-16T15:39:22.589Z,101591.35
2023-04-16T15:43:25.845Z,101587.84000000001
2023-04-16T15:47:22.669Z,101584.52
2023-04-16T15:51:22.676Z,101587.34
2023-04-16T15:55:22.506Z,101581.83
2023-04-16T15:59:22.641Z,101581.26999999999
2023-04-16T16:03:22.763Z,101580.24
2023-04-16T16:07:24.159Z,101577.64
2023-04-16T16:11:22.452Z,101582.92
2023-04-16T16:15:22.790Z,101585.67
2023-04-16T16:19:22.435Z,101581.93
2023-04-16T16:27:22.634Z,101571.53
2023-04-16T16:31:22.537Z,101569.14
2023-04-16T16:35:22.855Z,101571.57999999999
2023-04-16T16:39:24.250Z,101566.25
2023-04-16T16:43:22.710Z,101567.98999999999
2023-04-16T16:47:23.450Z,101568.3
2023-04-16T16:51:22.591Z,101570.39
2023-04-16T16:55:22.718Z,101569.36
2023-04-16T16:59:22.680Z,101572.75
2023-04-16T17:03:22.833Z,101574.13
2023-04-16T17:07:22.732Z,101575.23
2023-04-16T17:11:25.821Z,101574.11
2023-04-16T17:15:22.846Z,101573.14
2023-04-16T17:19:22.656Z,101573.14
2023-04-16T17:23:22.763Z,101573.8
2023-04-16T17:27:22.631Z,101573.69
2023-04-16T17:31:23.939Z,101574.87999999999
2023-04-16T17:35:23.628Z,101581.97
2023-04-16T17:39:22.921Z,101580.74
2023-04-16T17:43:23.157Z,101583.26
2023-04-16T17:47:22.828Z,101583.54000000001
2023-04-16T17:51:22.785Z,101583.69
2023-04-16T17:55:23.036Z,101590.79000000001
2023-04-16T17:59:22.956Z,101591.25
2023-04-16T18:03:23.208Z,101593.82
2023-04-16T18:07:22.798Z,101599.59
2023-04-16T18:11:23.221Z,101602.45
2023-04-16T18:15:23.029Z,101606.03
2023-04-16T18:19:23.067Z,101609.91
2023-04-16T18:23:22.912Z,101610.29999999999
2023-04-16T18:27:23.530Z,101619.19
2023-04-16T18:31:22.955Z,101615.66
2023-04-16T18:35:22.906Z,101614.37
2023-04-16T18:39:22.902Z,101620.42
2023-04-16T18:43:23.347Z,101624.33
2023-04-16T18:47:22.949Z,101620.81
2023-04-16T18:51:23.126Z,101623.27
2023-04-16T18:55:22.936Z,101624.75
2023-04-16T18:59:23.111Z,101626.28
2023-04-16T19:03:23.174Z,101627.22
2023-04-16T19:07:23.089Z,101632.48
2023-04-16T19:11:22.937Z,101634.36
2023-04-16T19:15:23.082Z,101639.23
2023-04-16T19:19:23.504Z,101635.89
2023-04-16T19:23:23.019Z,101636.81
2023-04-16T19:27:22.984Z,101637.28
2023-04-16T19:31:25.117Z,101640.95
2023-04-16T19:35:23.354Z,101645.14
2023-04-16T19:39:25.673Z,101652.91
2023-04-16T19:43:23.248Z,101655.17
2023-04-16T19:47:23.842Z,101665.20000000001
2023-04-16T19:51:23.432Z,101656.76
2023-04-16T19:55:23.226Z,101659.99
2023-04-16T19:59:23.987Z,101661.49
2023-04-16T20:03:23.286Z,101668.55
2023-04-16T20:07:23.089Z,101672.85
2023-04-16T20:11:23.565Z,101677.91
2023-04-16T20:27:23.340Z,101674.48000000001
2023-04-16T20:31:23.212Z,101671.94
2023-04-16T20:35:23.326Z,101672.49
2023-04-16T20:39:23.473Z,101669.84
2023-04-16T20:43:25.148Z,101672.19
2023-04-16T20:47:23.192Z,101674.13
2023-04-16T20:59:24.003Z,101672.08
2023-04-16T21:03:23.548Z,101673.83
2023-04-16T21:07:23.367Z,101675.11
2023-04-16T21:11:23.262Z,101674.98000000001
2023-04-16T21:15:23.578Z,101678.9
2023-04-16T21:19:23.389Z,101677.19
2023-04-16T21:23:23.527Z,101679.75
2023-04-16T21:31:23.763Z,101678.31
2023-04-16T21:39:26.533Z,101669.81
2023-04-16T21:43:23.627Z,101663.7
2023-04-16T21:47:23.838Z,101667.24
2023-04-16T21:51:28.084Z,101667.86
2023-04-16T21:55:23.714Z,101665.5
2023-04-16T21:59:23.381Z,101661.13
2023-04-16T22:03:25.182Z,101658.31
2023-04-16T22:07:26.163Z,101656.11
2023-04-16T22:11:23.507Z,101656.16
2023-04-16T22:15:23.510Z,101653.97
2023-04-16T22:19:23.671Z,101656.88
2023-04-16T22:27:23.564Z,101651.01
2023-04-16T22:31:23.681Z,101651.92
2023-04-16T22:35:23.729Z,101649.61
2023-04-16T22:39:23.598Z,101650.39
2023-04-16T22:43:23.608Z,101646.61
2023-04-16T22:47:23.642Z,101645.84
2023-04-16T22:51:23.738Z,101647.53
2023-04-16T22:55:23.707Z,101655.53
2023-04-16T22:59:24.406Z,101652.61
2023-04-16T23:03:24.025Z,101653.86
2023-04-16T23:07:23.652Z,101653.39
2023-04-16T23:11:23.704Z,101653.61
2023-04-16T23:15:23.818Z,101652.17
2023-04-16T23:19:23.900Z,101654.86
2023-04-16T23:23:23.665Z,101651.65
2023-04-16T23:27:23.903Z,101647.82
2023-04-16T23:31:23.794Z,101648.26000000001
2023-04-16T23:35:24.594Z,101649.69
2023-04-16T23:39:23.815Z,101655.95
2023-04-16T23:43:23.884Z,101664.0
2023-04-16T23:51:25.224Z,101668.40999999999
2023-04-16T23:55:24.113Z,101674.72
2023-04-16T23:59:23.940Z,101676.45999999999
